sensor_id;sensor_type;location;lat;lon;timestamp;P1;durP1;ratioP1;P2;durP2;ratioP2
74656;SDS011;63185;45.642;13.764;2024-03-02T00:02:19;17.60;;;4.03;;
74656;SDS011;63185;45.642;13.764;2024-03-02T00:04:45;17.60;;;4.15;;
74656;SDS011;63185;45.642;13.764;2024-03-02T00:07:10;16.52;;;3.70;;
74656;SDS011;63185;45.642;13.764;2024-03-02T00:09:39;13.80;;;3.63;;
74656;SDS011;63185;45.642;13.764;2024-03-02T00:12:05;15.13;;;3.20;;
74656;SDS011;63185;45.642;13.764;2024-03-02T00:14:31;12.57;;;3.42;;
74656;SDS011;63185;45.642;13.764;2024-03-02T00:16:57;15.85;;;3.95;;
74656;SDS011;63185;45.642;13.764;2024-03-02T00:19:23;12.65;;;3.50;;
74656;SDS011;63185;45.642;13.764;2024-03-02T00:21:50;11.90;;;3.38;;
74656;SDS011;63185;45.642;13.764;2024-03-02T00:24:24;14.82;;;3.60;;
74656;SDS011;63185;45.642;13.764;2024-03-02T00:27:00;14.02;;;4.15;;
74656;SDS011;63185;45.642;13.764;2024-03-02T00:29:28;11.23;;;3.65;;
74656;SDS011;63185;45.642;13.764;2024-03-02T00:31:57;13.10;;;4.60;;
74656;SDS011;63185;45.642;13.764;2024-03-02T00:34:23;16.00;;;3.92;;
74656;SDS011;63185;45.642;13.764;2024-03-02T00:36:49;17.52;;;4.50;;
74656;SDS011;63185;45.642;13.764;2024-03-02T00:39:16;10.52;;;3.80;;
74656;SDS011;63185;45.642;13.764;2024-03-02T00:41:42;13.10;;;4.15;;
74656;SDS011;63185;45.642;13.764;2024-03-02T00:44:09;11.65;;;4.50;;
74656;SDS011;63185;45.642;13.764;2024-03-02T00:49:17;11.05;;;4.95;;
74656;SDS011;63185;45.642;13.764;2024-03-02T00:51:46;10.52;;;4.97;;
74656;SDS011;63185;45.642;13.764;2024-03-02T00:54:19;13.60;;;4.25;;
74656;SDS011;63185;45.642;13.764;2024-03-02T00:56:50;14.15;;;4.90;;
74656;SDS011;63185;45.642;13.764;2024-03-02T00:59:21;12.15;;;5.03;;
74656;SDS011;63185;45.642;13.764;2024-03-02T01:01:48;16.15;;;4.60;;
74656;SDS011;63185;45.642;13.764;2024-03-02T01:04:14;14.73;;;5.40;;
74656;SDS011;63185;45.642;13.764;2024-03-02T01:06:40;12.20;;;4.97;;
74656;SDS011;63185;45.642;13.764;2024-03-02T01:09:09;11.00;;;5.00;;
74656;SDS011;63185;45.642;13.764;2024-03-02T01:11:35;13.35;;;5.00;;
74656;SDS011;63185;45.642;13.764;2024-03-02T01:14:00;10.75;;;4.53;;
74656;SDS011;63185;45.642;13.764;2024-03-02T01:16:26;10.82;;;4.25;;
74656;SDS011;63185;45.642;13.764;2024-03-02T01:18:52;12.30;;;4.03;;
74656;SDS011;63185;45.642;13.764;2024-03-02T01:21:17;11.23;;;3.78;;
74656;SDS011;63185;45.642;13.764;2024-03-02T01:23:43;9.68;;;3.92;;
74656;SDS011;63185;45.642;13.764;2024-03-02T01:26:09;10.13;;;3.60;;
74656;SDS011;63185;45.642;13.764;2024-03-02T01:28:34;12.18;;;3.42;;
74656;SDS011;63185;45.642;13.764;2024-03-02T01:31:00;8.60;;;3.38;;
74656;SDS011;63185;45.642;13.764;2024-03-02T01:33:27;10.90;;;3.42;;
74656;SDS011;63185;45.642;13.764;2024-03-02T01:35:52;13.00;;;3.50;;
74656;SDS011;63185;45.642;13.764;2024-03-02T01:38:18;7.30;;;2.65;;
74656;SDS011;63185;45.642;13.764;2024-03-02T01:40:44;12.00;;;3.72;;
74656;SDS011;63185;45.642;13.764;2024-03-02T01:43:10;8.40;;;3.15;;
74656;SDS011;63185;45.642;13.764;2024-03-02T01:45:36;8.02;;;3.17;;
74656;SDS011;63185;45.642;13.764;2024-03-02T01:48:02;9.27;;;2.90;;
74656;SDS011;63185;45.642;13.764;2024-03-02T01:50:31;10.93;;;3.10;;
74656;SDS011;63185;45.642;13.764;2024-03-02T01:52:58;9.05;;;3.45;;
74656;SDS011;63185;45.642;13.764;2024-03-02T01:55:24;11.93;;;4.03;;
74656;SDS011;63185;45.642;13.764;2024-03-02T01:57:50;12.40;;;4.30;;
74656;SDS011;63185;45.642;13.764;2024-03-02T02:00:17;9.10;;;3.78;;
74656;SDS011;63185;45.642;13.764;2024-03-02T02:02:44;9.05;;;3.03;;
74656;SDS011;63185;45.642;13.764;2024-03-02T02:05:11;8.88;;;3.10;;
74656;SDS011;63185;45.642;13.764;2024-03-02T02:07:37;10.65;;;3.33;;
74656;SDS011;63185;45.642;13.764;2024-03-02T02:10:03;10.60;;;2.70;;
74656;SDS011;63185;45.642;13.764;2024-03-02T02:12:29;6.53;;;2.70;;
74656;SDS011;63185;45.642;13.764;2024-03-02T02:14:55;8.43;;;2.90;;
74656;SDS011;63185;45.642;13.764;2024-03-02T02:17:20;12.63;;;3.10;;
74656;SDS011;63185;45.642;13.764;2024-03-02T02:19:46;9.95;;;3.28;;
74656;SDS011;63185;45.642;13.764;2024-03-02T02:22:12;6.78;;;3.00;;
74656;SDS011;63185;45.642;13.764;2024-03-02T02:24:41;9.38;;;4.03;;
74656;SDS011;63185;45.642;13.764;2024-03-02T02:27:08;9.40;;;3.75;;
74656;SDS011;63185;45.642;13.764;2024-03-02T02:29:34;10.30;;;3.10;;
74656;SDS011;63185;45.642;13.764;2024-03-02T02:32:01;9.48;;;3.10;;
74656;SDS011;63185;45.642;13.764;2024-03-02T02:34:26;8.88;;;3.03;;
74656;SDS011;63185;45.642;13.764;2024-03-02T02:36:52;9.00;;;3.20;;
74656;SDS011;63185;45.642;13.764;2024-03-02T02:39:19;10.80;;;3.35;;
74656;SDS011;63185;45.642;13.764;2024-03-02T02:41:47;8.80;;;3.05;;
74656;SDS011;63185;45.642;13.764;2024-03-02T02:44:13;9.20;;;3.13;;
74656;SDS011;63185;45.642;13.764;2024-03-02T02:46:39;9.15;;;2.88;;
74656;SDS011;63185;45.642;13.764;2024-03-02T02:49:05;7.53;;;3.20;;
74656;SDS011;63185;45.642;13.764;2024-03-02T02:51:31;7.43;;;2.72;;
74656;SDS011;63185;45.642;13.764;2024-03-02T02:53:56;10.75;;;3.40;;
74656;SDS011;63185;45.642;13.764;2024-03-02T02:56:22;11.60;;;3.10;;
74656;SDS011;63185;45.642;13.764;2024-03-02T02:58:48;7.88;;;3.15;;
74656;SDS011;63185;45.642;13.764;2024-03-02T03:01:14;8.88;;;3.30;;
74656;SDS011;63185;45.642;13.764;2024-03-02T03:03:44;10.73;;;3.22;;
74656;SDS011;63185;45.642;13.764;2024-03-02T03:06:10;8.82;;;2.50;;
74656;SDS011;63185;45.642;13.764;2024-03-02T03:08:36;10.07;;;2.95;;
74656;SDS011;63185;45.642;13.764;2024-03-02T03:11:03;4.90;;;2.60;;
74656;SDS011;63185;45.642;13.764;2024-03-02T03:13:30;6.63;;;2.45;;
74656;SDS011;63185;45.642;13.764;2024-03-02T03:15:59;5.63;;;2.58;;
74656;SDS011;63185;45.642;13.764;2024-03-02T03:18:24;6.55;;;2.70;;
74656;SDS011;63185;45.642;13.764;2024-03-02T03:20:50;8.45;;;2.67;;
74656;SDS011;63185;45.642;13.764;2024-03-02T03:23:16;5.15;;;2.30;;
74656;SDS011;63185;45.642;13.764;2024-03-02T03:25:42;8.95;;;2.40;;
74656;SDS011;63185;45.642;13.764;2024-03-02T03:28:08;6.90;;;2.30;;
74656;SDS011;63185;45.642;13.764;2024-03-02T03:30:37;8.17;;;3.73;;
74656;SDS011;63185;45.642;13.764;2024-03-02T03:33:04;7.95;;;2.30;;
74656;SDS011;63185;45.642;13.764;2024-03-02T03:35:31;5.20;;;2.25;;
74656;SDS011;63185;45.642;13.764;2024-03-02T03:37:57;6.22;;;1.90;;
74656;SDS011;63185;45.642;13.764;2024-03-02T03:40:23;3.97;;;1.70;;
74656;SDS011;63185;45.642;13.764;2024-03-02T03:42:49;4.97;;;1.90;;
74656;SDS011;63185;45.642;13.764;2024-03-02T03:45:15;5.75;;;1.67;;
74656;SDS011;63185;45.642;13.764;2024-03-02T03:47:41;5.75;;;1.67;;
74656;SDS011;63185;45.642;13.764;2024-03-02T03:50:07;8.32;;;2.00;;
74656;SDS011;63185;45.642;13.764;2024-03-02T03:52:33;5.45;;;1.63;;
74656;SDS011;63185;45.642;13.764;2024-03-02T03:54:59;4.38;;;1.42;;
74656;SDS011;63185;45.642;13.764;2024-03-02T03:57:25;4.55;;;1.38;;
74656;SDS011;63185;45.642;13.764;2024-03-02T03:59:51;4.35;;;1.50;;
74656;SDS011;63185;45.642;13.764;2024-03-02T04:02:17;4.45;;;1.50;;
74656;SDS011;63185;45.642;13.764;2024-03-02T04:04:43;4.38;;;1.48;;
74656;SDS011;63185;45.642;13.764;2024-03-02T04:07:09;3.92;;;1.33;;
74656;SDS011;63185;45.642;13.764;2024-03-02T04:09:34;3.83;;;1.10;;
74656;SDS011;63185;45.642;13.764;2024-03-02T04:12:00;4.30;;;1.20;;
74656;SDS011;63185;45.642;13.764;2024-03-02T04:14:26;3.60;;;0.98;;
74656;SDS011;63185;45.642;13.764;2024-03-02T04:16:51;2.20;;;0.80;;
74656;SDS011;63185;45.642;13.764;2024-03-02T04:19:17;1.88;;;0.82;;
74656;SDS011;63185;45.642;13.764;2024-03-02T04:21:42;4.07;;;0.68;;
74656;SDS011;63185;45.642;13.764;2024-03-02T04:24:08;3.13;;;0.60;;
74656;SDS011;63185;45.642;13.764;2024-03-02T04:26:34;2.05;;;0.40;;
74656;SDS011;63185;45.642;13.764;2024-03-02T04:28:59;3.67;;;0.60;;
74656;SDS011;63185;45.642;13.764;2024-03-02T04:31:25;2.85;;;0.60;;
74656;SDS011;63185;45.642;13.764;2024-03-02T04:33:51;3.03;;;0.50;;
74656;SDS011;63185;45.642;13.764;2024-03-02T04:36:16;2.92;;;0.70;;
74656;SDS011;63185;45.642;13.764;2024-03-02T04:38:42;2.90;;;0.50;;
74656;SDS011;63185;45.642;13.764;2024-03-02T04:41:08;4.90;;;0.70;;
74656;SDS011;63185;45.642;13.764;2024-03-02T04:43:34;3.42;;;1.23;;
74656;SDS011;63185;45.642;13.764;2024-03-02T04:46:00;4.13;;;0.70;;
74656;SDS011;63185;45.642;13.764;2024-03-02T04:48:25;5.05;;;1.02;;
74656;SDS011;63185;45.642;13.764;2024-03-02T04:50:51;2.50;;;1.00;;
74656;SDS011;63185;45.642;13.764;2024-03-02T04:53:17;2.70;;;0.80;;
74656;SDS011;63185;45.642;13.764;2024-03-02T04:55:43;3.13;;;0.60;;
74656;SDS011;63185;45.642;13.764;2024-03-02T04:58:08;2.20;;;0.65;;
74656;SDS011;63185;45.642;13.764;2024-03-02T05:00:34;4.00;;;0.75;;
74656;SDS011;63185;45.642;13.764;2024-03-02T05:03:00;2.95;;;0.40;;
74656;SDS011;63185;45.642;13.764;2024-03-02T05:05:26;2.35;;;0.50;;
74656;SDS011;63185;45.642;13.764;2024-03-02T05:07:52;5.60;;;0.80;;
74656;SDS011;63185;45.642;13.764;2024-03-02T05:10:17;1.92;;;0.70;;
74656;SDS011;63185;45.642;13.764;2024-03-02T05:12:43;3.35;;;0.57;;
74656;SDS011;63185;45.642;13.764;2024-03-02T05:15:13;2.53;;;0.50;;
74656;SDS011;63185;45.642;13.764;2024-03-02T05:17:39;5.93;;;0.60;;
74656;SDS011;63185;45.642;13.764;2024-03-02T05:20:08;3.10;;;0.60;;
74656;SDS011;63185;45.642;13.764;2024-03-02T05:22:34;1.95;;;0.50;;
74656;SDS011;63185;45.642;13.764;2024-03-02T05:25:00;2.45;;;0.55;;
74656;SDS011;63185;45.642;13.764;2024-03-02T05:27:27;0.93;;;0.43;;
74656;SDS011;63185;45.642;13.764;2024-03-02T05:29:53;3.10;;;0.65;;
74656;SDS011;63185;45.642;13.764;2024-03-02T05:32:18;2.05;;;0.47;;
74656;SDS011;63185;45.642;13.764;2024-03-02T05:34:44;2.28;;;0.40;;
74656;SDS011;63185;45.642;13.764;2024-03-02T05:37:10;1.20;;;0.40;;
74656;SDS011;63185;45.642;13.764;2024-03-02T05:39:36;4.25;;;0.50;;
74656;SDS011;63185;45.642;13.764;2024-03-02T05:42:02;3.75;;;0.60;;
74656;SDS011;63185;45.642;13.764;2024-03-02T05:44:28;1.25;;;0.40;;
74656;SDS011;63185;45.642;13.764;2024-03-02T05:46:54;3.10;;;0.60;;
74656;SDS011;63185;45.642;13.764;2024-03-02T05:49:19;4.28;;;0.80;;
74656;SDS011;63185;45.642;13.764;2024-03-02T05:51:45;3.75;;;1.10;;
74656;SDS011;63185;45.642;13.764;2024-03-02T05:54:11;3.38;;;1.05;;
74656;SDS011;63185;45.642;13.764;2024-03-02T05:56:37;4.20;;;1.20;;
74656;SDS011;63185;45.642;13.764;2024-03-02T05:59:02;3.80;;;0.70;;
74656;SDS011;63185;45.642;13.764;2024-03-02T06:01:46;2.95;;;0.80;;
74656;SDS011;63185;45.642;13.764;2024-03-02T06:04:13;3.40;;;0.80;;
74656;SDS011;63185;45.642;13.764;2024-03-02T06:06:39;5.38;;;0.80;;
74656;SDS011;63185;45.642;13.764;2024-03-02T06:09:05;3.72;;;0.85;;
74656;SDS011;63185;45.642;13.764;2024-03-02T06:11:38;2.90;;;0.52;;
74656;SDS011;63185;45.642;13.764;2024-03-02T06:14:05;3.58;;;0.95;;
74656;SDS011;63185;45.642;13.764;2024-03-02T06:16:32;2.92;;;0.70;;
74656;SDS011;63185;45.642;13.764;2024-03-02T06:18:58;2.97;;;0.57;;
74656;SDS011;63185;45.642;13.764;2024-03-02T06:21:25;4.05;;;0.73;;
74656;SDS011;63185;45.642;13.764;2024-03-02T06:23:50;3.15;;;0.77;;
74656;SDS011;63185;45.642;13.764;2024-03-02T06:26:16;4.15;;;0.98;;
74656;SDS011;63185;45.642;13.764;2024-03-02T06:28:42;1.88;;;0.50;;
74656;SDS011;63185;45.642;13.764;2024-03-02T06:31:08;1.15;;;0.40;;
74656;SDS011;63185;45.642;13.764;2024-03-02T06:33:34;2.47;;;0.57;;
74656;SDS011;63185;45.642;13.764;2024-03-02T06:35:59;2.30;;;0.45;;
74656;SDS011;63185;45.642;13.764;2024-03-02T06:38:25;4.80;;;0.63;;
74656;SDS011;63185;45.642;13.764;2024-03-02T06:40:51;3.88;;;0.40;;
74656;SDS011;63185;45.642;13.764;2024-03-02T06:43:17;3.47;;;0.70;;
74656;SDS011;63185;45.642;13.764;2024-03-02T06:45:42;3.33;;;0.60;;
74656;SDS011;63185;45.642;13.764;2024-03-02T06:48:08;2.22;;;0.50;;
74656;SDS011;63185;45.642;13.764;2024-03-02T06:50:33;1.58;;;0.40;;
74656;SDS011;63185;45.642;13.764;2024-03-02T06:52:59;1.75;;;0.50;;
74656;SDS011;63185;45.642;13.764;2024-03-02T06:55:25;1.73;;;0.40;;
74656;SDS011;63185;45.642;13.764;2024-03-02T06:57:51;1.85;;;0.40;;
74656;SDS011;63185;45.642;13.764;2024-03-02T07:00:17;3.83;;;0.40;;
74656;SDS011;63185;45.642;13.764;2024-03-02T07:02:45;3.17;;;0.55;;
74656;SDS011;63185;45.642;13.764;2024-03-02T07:05:11;2.92;;;0.40;;
74656;SDS011;63185;45.642;13.764;2024-03-02T07:07:37;2.75;;;0.40;;
74656;SDS011;63185;45.642;13.764;2024-03-02T07:10:06;1.65;;;0.50;;
74656;SDS011;63185;45.642;13.764;2024-03-02T07:12:33;4.00;;;0.60;;
74656;SDS011;63185;45.642;13.764;2024-03-02T07:14:58;1.85;;;0.57;;
74656;SDS011;63185;45.642;13.764;2024-03-02T07:17:30;1.55;;;0.60;;
74656;SDS011;63185;45.642;13.764;2024-03-02T07:19:56;3.38;;;0.50;;
74656;SDS011;63185;45.642;13.764;2024-03-02T07:22:22;5.15;;;0.70;;
74656;SDS011;63185;45.642;13.764;2024-03-02T07:24:48;3.95;;;0.70;;
74656;SDS011;63185;45.642;13.764;2024-03-02T07:27:15;3.35;;;0.73;;
74656;SDS011;63185;45.642;13.764;2024-03-02T07:29:41;3.45;;;0.77;;
74656;SDS011;63185;45.642;13.764;2024-03-02T07:32:08;2.10;;;1.00;;
74656;SDS011;63185;45.642;13.764;2024-03-02T07:34:35;1.80;;;0.70;;
74656;SDS011;63185;45.642;13.764;2024-03-02T07:37:01;4.15;;;1.25;;
74656;SDS011;63185;45.642;13.764;2024-03-02T07:39:27;2.10;;;0.50;;
74656;SDS011;63185;45.642;13.764;2024-03-02T07:41:53;1.85;;;0.52;;
74656;SDS011;63185;45.642;13.764;2024-03-02T07:44:19;1.88;;;0.68;;
74656;SDS011;63185;45.642;13.764;2024-03-02T07:46:45;6.40;;;1.17;;
74656;SDS011;63185;45.642;13.764;2024-03-02T07:49:11;1.80;;;0.40;;
74656;SDS011;63185;45.642;13.764;2024-03-02T07:51:41;2.40;;;0.85;;
74656;SDS011;63185;45.642;13.764;2024-03-02T07:54:07;2.00;;;1.15;;
74656;SDS011;63185;45.642;13.764;2024-03-02T07:56:33;1.77;;;0.82;;
74656;SDS011;63185;45.642;13.764;2024-03-02T07:58:59;4.10;;;2.55;;
74656;SDS011;63185;45.642;13.764;2024-03-02T08:01:29;2.55;;;0.98;;
74656;SDS011;63185;45.642;13.764;2024-03-02T08:03:56;1.77;;;0.60;;
74656;SDS011;63185;45.642;13.764;2024-03-02T08:06:24;2.17;;;0.45;;
74656;SDS011;63185;45.642;13.764;2024-03-02T08:08:56;0.75;;;0.40;;
74656;SDS011;63185;45.642;13.764;2024-03-02T08:11:23;1.08;;;0.40;;
74656;SDS011;63185;45.642;13.764;2024-03-02T08:13:48;1.83;;;0.60;;
74656;SDS011;63185;45.642;13.764;2024-03-02T08:16:15;2.72;;;0.55;;
74656;SDS011;63185;45.642;13.764;2024-03-02T08:18:43;2.97;;;0.63;;
74656;SDS011;63185;45.642;13.764;2024-03-02T08:21:09;2.05;;;0.80;;
74656;SDS011;63185;45.642;13.764;2024-03-02T08:23:35;3.20;;;1.73;;
74656;SDS011;63185;45.642;13.764;2024-03-02T08:26:02;3.00;;;0.82;;
74656;SDS011;63185;45.642;13.764;2024-03-02T08:28:29;2.65;;;0.75;;
74656;SDS011;63185;45.642;13.764;2024-03-02T08:30:55;1.98;;;0.70;;
74656;SDS011;63185;45.642;13.764;2024-03-02T08:33:21;4.20;;;0.60;;
74656;SDS011;63185;45.642;13.764;2024-03-02T08:35:47;3.08;;;1.02;;
74656;SDS011;63185;45.642;13.764;2024-03-02T08:38:13;4.05;;;0.60;;
74656;SDS011;63185;45.642;13.764;2024-03-02T08:40:38;2.10;;;0.50;;
74656;SDS011;63185;45.642;13.764;2024-03-02T08:43:04;24.17;;;14.65;;
74656;SDS011;63185;45.642;13.764;2024-03-02T08:45:30;8.15;;;5.00;;
74656;SDS011;63185;45.642;13.764;2024-03-02T08:47:55;2.67;;;0.90;;
74656;SDS011;63185;45.642;13.764;2024-03-02T08:50:21;1.95;;;0.40;;
74656;SDS011;63185;45.642;13.764;2024-03-02T08:52:47;2.70;;;0.50;;
74656;SDS011;63185;45.642;13.764;2024-03-02T08:55:12;11.95;;;10.27;;
74656;SDS011;63185;45.642;13.764;2024-03-02T08:57:38;3.33;;;1.35;;
74656;SDS011;63185;45.642;13.764;2024-03-02T09:00:05;6.25;;;3.25;;
74656;SDS011;63185;45.642;13.764;2024-03-02T09:02:32;2.88;;;1.27;;
74656;SDS011;63185;45.642;13.764;2024-03-02T09:04:58;5.07;;;1.92;;
74656;SDS011;63185;45.642;13.764;2024-03-02T09:07:23;3.33;;;1.10;;
74656;SDS011;63185;45.642;13.764;2024-03-02T09:09:49;1.45;;;0.70;;
74656;SDS011;63185;45.642;13.764;2024-03-02T09:12:15;3.83;;;0.80;;
74656;SDS011;63185;45.642;13.764;2024-03-02T09:14:41;3.47;;;0.90;;
74656;SDS011;63185;45.642;13.764;2024-03-02T09:17:07;3.53;;;1.00;;
74656;SDS011;63185;45.642;13.764;2024-03-02T09:19:35;4.03;;;1.13;;
74656;SDS011;63185;45.642;13.764;2024-03-02T09:22:01;2.42;;;1.25;;
74656;SDS011;63185;45.642;13.764;2024-03-02T09:24:28;3.17;;;0.98;;
74656;SDS011;63185;45.642;13.764;2024-03-02T09:26:54;3.47;;;0.90;;
74656;SDS011;63185;45.642;13.764;2024-03-02T09:29:19;2.65;;;1.20;;
74656;SDS011;63185;45.642;13.764;2024-03-02T09:31:45;5.10;;;1.10;;
74656;SDS011;63185;45.642;13.764;2024-03-02T09:34:12;4.55;;;1.27;;
74656;SDS011;63185;45.642;13.764;2024-03-02T09:36:39;3.85;;;1.30;;
74656;SDS011;63185;45.642;13.764;2024-03-02T09:39:05;2.95;;;1.00;;
74656;SDS011;63185;45.642;13.764;2024-03-02T09:41:34;4.95;;;0.90;;
74656;SDS011;63185;45.642;13.764;2024-03-02T09:44:04;3.05;;;0.90;;
74656;SDS011;63185;45.642;13.764;2024-03-02T09:46:30;2.70;;;1.00;;
74656;SDS011;63185;45.642;13.764;2024-03-02T09:48:56;2.25;;;0.77;;
74656;SDS011;63185;45.642;13.764;2024-03-02T09:51:22;3.33;;;0.70;;
74656;SDS011;63185;45.642;13.764;2024-03-02T09:53:48;3.13;;;0.65;;
74656;SDS011;63185;45.642;13.764;2024-03-02T09:56:15;1.88;;;0.70;;
74656;SDS011;63185;45.642;13.764;2024-03-02T09:58:41;6.82;;;0.75;;
74656;SDS011;63185;45.642;13.764;2024-03-02T10:01:07;2.28;;;0.60;;
74656;SDS011;63185;45.642;13.764;2024-03-02T10:03:35;2.28;;;0.50;;
74656;SDS011;63185;45.642;13.764;2024-03-02T10:06:20;1.60;;;0.50;;
74656;SDS011;63185;45.642;13.764;2024-03-02T10:08:50;2.95;;;0.60;;
74656;SDS011;63185;45.642;13.764;2024-03-02T10:11:26;2.95;;;0.70;;
74656;SDS011;63185;45.642;13.764;2024-03-02T10:14:12;4.68;;;0.60;;
74656;SDS011;63185;45.642;13.764;2024-03-02T10:16:42;4.45;;;0.60;;
74656;SDS011;63185;45.642;13.764;2024-03-02T10:19:15;3.33;;;0.60;;
74656;SDS011;63185;45.642;13.764;2024-03-02T10:21:48;2.70;;;0.60;;
74656;SDS011;63185;45.642;13.764;2024-03-02T10:24:14;4.47;;;0.90;;
74656;SDS011;63185;45.642;13.764;2024-03-02T10:26:41;4.35;;;0.63;;
74656;SDS011;63185;45.642;13.764;2024-03-02T10:29:08;6.30;;;0.80;;
74656;SDS011;63185;45.642;13.764;2024-03-02T10:31:36;2.10;;;0.40;;
74656;SDS011;63185;45.642;13.764;2024-03-02T10:34:06;2.88;;;0.75;;
74656;SDS011;63185;45.642;13.764;2024-03-02T10:36:33;2.65;;;0.60;;
74656;SDS011;63185;45.642;13.764;2024-03-02T10:39:05;2.72;;;0.50;;
74656;SDS011;63185;45.642;13.764;2024-03-02T10:41:33;2.75;;;0.55;;
74656;SDS011;63185;45.642;13.764;2024-03-02T10:44:03;3.70;;;0.80;;
74656;SDS011;63185;45.642;13.764;2024-03-02T10:46:30;2.80;;;0.50;;
74656;SDS011;63185;45.642;13.764;2024-03-02T10:48:58;2.28;;;0.57;;
74656;SDS011;63185;45.642;13.764;2024-03-02T10:51:28;1.92;;;0.55;;
74656;SDS011;63185;45.642;13.764;2024-03-02T10:53:57;1.80;;;0.47;;
74656;SDS011;63185;45.642;13.764;2024-03-02T10:56:30;4.07;;;1.00;;
74656;SDS011;63185;45.642;13.764;2024-03-02T11:04:24;4.10;;;1.08;;
74656;SDS011;63185;45.642;13.764;2024-03-02T11:06:51;4.63;;;0.70;;
74656;SDS011;63185;45.642;13.764;2024-03-02T11:09:21;3.55;;;0.60;;
74656;SDS011;63185;45.642;13.764;2024-03-02T11:11:49;3.13;;;0.60;;
74656;SDS011;63185;45.642;13.764;2024-03-02T11:14:26;4.67;;;0.80;;
74656;SDS011;63185;45.642;13.764;2024-03-02T11:16:54;3.33;;;1.05;;
74656;SDS011;63185;45.642;13.764;2024-03-02T11:19:21;4.10;;;0.90;;
74656;SDS011;63185;45.642;13.764;2024-03-02T11:21:47;6.28;;;2.00;;
74656;SDS011;63185;45.642;13.764;2024-03-02T11:26:58;4.20;;;1.00;;
74656;SDS011;63185;45.642;13.764;2024-03-02T11:32:06;4.68;;;0.60;;
74656;SDS011;63185;45.642;13.764;2024-03-02T11:34:42;4.82;;;0.55;;
74656;SDS011;63185;45.642;13.764;2024-03-02T11:37:11;4.40;;;0.77;;
74656;SDS011;63185;45.642;13.764;2024-03-02T11:39:39;4.90;;;0.75;;
74656;SDS011;63185;45.642;13.764;2024-03-02T11:42:06;2.38;;;0.63;;
74656;SDS011;63185;45.642;13.764;2024-03-02T11:44:34;5.07;;;0.80;;
74656;SDS011;63185;45.642;13.764;2024-03-02T11:47:02;2.45;;;0.55;;
74656;SDS011;63185;45.642;13.764;2024-03-02T11:49:45;4.72;;;0.98;;
74656;SDS011;63185;45.642;13.764;2024-03-02T11:52:14;7.32;;;0.80;;
74656;SDS011;63185;45.642;13.764;2024-03-02T11:54:43;2.53;;;0.57;;
74656;SDS011;63185;45.642;13.764;2024-03-02T11:57:17;3.13;;;0.70;;
74656;SDS011;63185;45.642;13.764;2024-03-02T11:59:44;4.07;;;0.60;;
74656;SDS011;63185;45.642;13.764;2024-03-02T12:02:14;6.43;;;1.13;;
74656;SDS011;63185;45.642;13.764;2024-03-02T12:04:44;2.72;;;0.80;;
74656;SDS011;63185;45.642;13.764;2024-03-02T12:07:11;9.07;;;1.17;;
74656;SDS011;63185;45.642;13.764;2024-03-02T12:09:37;7.10;;;1.10;;
74656;SDS011;63185;45.642;13.764;2024-03-02T12:12:04;10.23;;;1.30;;
74656;SDS011;63185;45.642;13.764;2024-03-02T12:14:31;11.93;;;1.60;;
74656;SDS011;63185;45.642;13.764;2024-03-02T12:16:58;10.98;;;1.67;;
74656;SDS011;63185;45.642;13.764;2024-03-02T12:19:24;10.63;;;1.70;;
74656;SDS011;63185;45.642;13.764;2024-03-02T12:21:51;7.38;;;1.52;;
74656;SDS011;63185;45.642;13.764;2024-03-02T12:24:18;10.27;;;1.67;;
74656;SDS011;63185;45.642;13.764;2024-03-02T12:26:44;9.02;;;1.63;;
74656;SDS011;63185;45.642;13.764;2024-03-02T12:29:11;3.92;;;1.50;;
74656;SDS011;63185;45.642;13.764;2024-03-02T12:31:37;7.07;;;1.30;;
74656;SDS011;63185;45.642;13.764;2024-03-02T12:34:04;7.07;;;1.50;;
74656;SDS011;63185;45.642;13.764;2024-03-02T12:36:30;5.00;;;1.17;;
74656;SDS011;63185;45.642;13.764;2024-03-02T12:39:03;4.53;;;1.00;;
74656;SDS011;63185;45.642;13.764;2024-03-02T12:41:28;2.53;;;0.90;;
74656;SDS011;63185;45.642;13.764;2024-03-02T12:43:54;5.30;;;1.20;;
74656;SDS011;63185;45.642;13.764;2024-03-02T12:46:20;5.55;;;1.65;;
74656;SDS011;63185;45.642;13.764;2024-03-02T12:48:46;5.57;;;1.40;;
74656;SDS011;63185;45.642;13.764;2024-03-02T12:51:11;4.82;;;1.02;;
74656;SDS011;63185;45.642;13.764;2024-03-02T12:53:37;4.60;;;0.82;;
74656;SDS011;63185;45.642;13.764;2024-03-02T12:56:03;6.00;;;1.10;;
74656;SDS011;63185;45.642;13.764;2024-03-02T12:58:30;5.35;;;0.98;;
74656;SDS011;63185;45.642;13.764;2024-03-02T13:01:09;5.15;;;1.58;;
74656;SDS011;63185;45.642;13.764;2024-03-02T13:03:36;3.85;;;0.90;;
74656;SDS011;63185;45.642;13.764;2024-03-02T13:06:03;5.03;;;1.10;;
74656;SDS011;63185;45.642;13.764;2024-03-02T13:08:30;3.15;;;0.70;;
74656;SDS011;63185;45.642;13.764;2024-03-02T13:10:56;6.93;;;1.05;;
74656;SDS011;63185;45.642;13.764;2024-03-02T13:13:22;6.32;;;0.80;;
74656;SDS011;63185;45.642;13.764;2024-03-02T13:15:48;4.15;;;0.70;;
74656;SDS011;63185;45.642;13.764;2024-03-02T13:18:13;8.63;;;1.42;;
74656;SDS011;63185;45.642;13.764;2024-03-02T13:20:39;2.92;;;0.77;;
74656;SDS011;63185;45.642;13.764;2024-03-02T13:23:05;3.50;;;1.05;;
74656;SDS011;63185;45.642;13.764;2024-03-02T13:25:31;3.67;;;1.17;;
74656;SDS011;63185;45.642;13.764;2024-03-02T13:27:57;3.58;;;1.10;;
74656;SDS011;63185;45.642;13.764;2024-03-02T13:30:23;3.30;;;1.52;;
74656;SDS011;63185;45.642;13.764;2024-03-02T13:32:49;5.07;;;1.42;;
74656;SDS011;63185;45.642;13.764;2024-03-02T13:35:15;4.05;;;1.40;;
74656;SDS011;63185;45.642;13.764;2024-03-02T13:37:40;5.70;;;1.58;;
74656;SDS011;63185;45.642;13.764;2024-03-02T13:40:06;2.60;;;1.30;;
74656;SDS011;63185;45.642;13.764;2024-03-02T13:42:38;4.45;;;1.80;;
74656;SDS011;63185;45.642;13.764;2024-03-02T13:45:04;4.68;;;1.77;;
74656;SDS011;63185;45.642;13.764;2024-03-02T13:47:30;4.82;;;1.80;;
74656;SDS011;63185;45.642;13.764;2024-03-02T13:49:56;4.20;;;1.63;;
74656;SDS011;63185;45.642;13.764;2024-03-02T13:52:22;5.32;;;1.58;;
74656;SDS011;63185;45.642;13.764;2024-03-02T13:54:48;4.85;;;1.60;;
74656;SDS011;63185;45.642;13.764;2024-03-02T13:57:14;5.13;;;1.52;;
74656;SDS011;63185;45.642;13.764;2024-03-02T13:59:40;4.00;;;1.67;;
74656;SDS011;63185;45.642;13.764;2024-03-02T14:02:07;5.53;;;1.70;;
74656;SDS011;63185;45.642;13.764;2024-03-02T14:04:34;3.78;;;1.85;;
74656;SDS011;63185;45.642;13.764;2024-03-02T14:07:00;6.90;;;2.00;;
74656;SDS011;63185;45.642;13.764;2024-03-02T14:09:26;5.63;;;2.25;;
74656;SDS011;63185;45.642;13.764;2024-03-02T14:11:52;6.40;;;2.10;;
74656;SDS011;63185;45.642;13.764;2024-03-02T14:14:21;5.47;;;2.00;;
74656;SDS011;63185;45.642;13.764;2024-03-02T14:16:48;4.63;;;1.67;;
74656;SDS011;63185;45.642;13.764;2024-03-02T14:19:14;3.88;;;2.25;;
74656;SDS011;63185;45.642;13.764;2024-03-02T14:21:39;7.32;;;2.75;;
74656;SDS011;63185;45.642;13.764;2024-03-02T14:24:05;4.15;;;1.60;;
74656;SDS011;63185;45.642;13.764;2024-03-02T14:26:36;3.17;;;1.30;;
74656;SDS011;63185;45.642;13.764;2024-03-02T14:29:02;3.67;;;1.40;;
74656;SDS011;63185;45.642;13.764;2024-03-02T14:31:29;3.50;;;1.73;;
74656;SDS011;63185;45.642;13.764;2024-03-02T14:33:56;6.32;;;1.30;;
74656;SDS011;63185;45.642;13.764;2024-03-02T14:36:21;2.63;;;1.10;;
74656;SDS011;63185;45.642;13.764;2024-03-02T14:38:48;3.15;;;1.40;;
74656;SDS011;63185;45.642;13.764;2024-03-02T14:41:14;3.95;;;1.40;;
74656;SDS011;63185;45.642;13.764;2024-03-02T14:43:40;2.33;;;1.13;;
74656;SDS011;63185;45.642;13.764;2024-03-02T14:46:06;3.38;;;1.67;;